Terminal Aerodrome Forecast
Issued by NWS

Home | Current Version | Previous Version | Text Only | Print | Product List | Glossary On
Versions: 1 2 3 4 5 6 7 8 9 10 11 12 13 14 15 16 17 18 19 20
000
FTUS42 KMHX 220543
TAFOAJ
TAF
KOAJ 220543Z 2206/2306 00000KT 4SM BR FEW016
     FM220700 00000KT 2SM BR SCT010
     FM220900 00000KT 1SM BR OVC007
     FM221400 20006KT P6SM VCSH SCT030
      AMD LTD TO CLD VIS AND WIND=

USA.gov is the U.S. government's official web portal to all federal, state and local government web resources and services.